Amelia Island, Florida
Current Conditions -  °F | °C
As of 12:15 PM on Thursday 23 Oct 2014 (Local Time) from KFHB Reporting Station
Scattered Clouds Scattered Clouds  
Wind Chill: 24°   Ceiling: Unl
Heat Index: 24°   Visibility: 10mi
Dew Point: 13°   Wind: 9mph
Humidity: 50%   Direction: 30°NNE
Pressure: 30.07"   Gusts: NA
Location:  30.6056°N, 81.5268°W
Report Text: KFHB 231615Z AUTO 03008KT 10SM SCT031 SCT038 24/13 A3007 RMK AO1
Loading
Personal Weather Stations






























Interactive Weather Map
Tropical Storm Tracking
New forecast layout! Learn more

10-Day Weather Forecast

Advertisements
Track Severe Weather on mobile